createdAt,value
2022-12-06T00:00:40.572Z,13.60
2022-12-06T00:04:41.991Z,7.75
2022-12-06T00:08:43.911Z,9.32
2022-12-06T00:12:45.328Z,12.27
2022-12-06T00:16:46.906Z,12.85
2022-12-06T00:20:48.417Z,13.57
2022-12-06T00:24:49.839Z,12.45
2022-12-06T00:28:56.624Z,10.30
2022-12-06T00:32:58.083Z,10.73
2022-12-06T00:36:59.567Z,13.80
2022-12-06T00:41:05.056Z,9.15
2022-12-06T00:45:07.304Z,11.32
2022-12-06T00:49:09.591Z,13.25
2022-12-06T00:53:11.149Z,11.73
2022-12-06T00:57:12.598Z,12.90
2022-12-06T01:01:20.602Z,11.60
2022-12-06T01:05:22.096Z,10.57
2022-12-06T01:09:23.579Z,11.57
2022-12-06T01:13:25.019Z,12.52
2022-12-06T01:17:26.488Z,11.80
2022-12-06T01:21:29.109Z,12.27
2022-12-06T01:25:35.787Z,11.60
2022-12-06T01:29:38.017Z,13.02
2022-12-06T01:33:39.502Z,10.15
2022-12-06T01:37:41.144Z,11.43
2022-12-06T01:41:42.603Z,12.00
2022-12-06T01:45:44.612Z,10.80
2022-12-06T01:49:56.448Z,10.68
2022-12-06T01:54:00.134Z,12.40
2022-12-06T01:58:07.726Z,13.48
2022-12-06T02:02:09.317Z,10.57
2022-12-06T02:06:10.911Z,11.68
2022-12-06T02:10:13.362Z,12.25
2022-12-06T02:14:19.936Z,3.22
2022-12-06T02:18:31.910Z,11.60
2022-12-06T02:22:39.377Z,9.93
2022-12-06T02:26:48.287Z,10.98
2022-12-06T02:30:59.932Z,12.00
2022-12-06T02:35:25.189Z,9.73
2022-12-06T02:39:48.273Z,10.45
2022-12-06T02:43:56.584Z,12.00
2022-12-06T02:48:03.013Z,10.10
2022-12-06T02:52:05.304Z,8.95
2022-12-06T02:56:08.055Z,11.38
2022-12-06T03:00:28.358Z,11.50
2022-12-06T03:09:06.006Z,10.35
2022-12-06T03:13:16.672Z,11.55
2022-12-06T03:17:26.866Z,10.55
2022-12-06T03:21:32.270Z,11.98
2022-12-06T03:25:36.039Z,12.57
2022-12-06T03:29:43.480Z,11.90
2022-12-06T03:33:56.013Z,11.38
2022-12-06T03:38:06.184Z,11.95
2022-12-06T03:42:08.327Z,8.23
2022-12-06T03:46:17.816Z,11.00
2022-12-06T03:50:25.277Z,10.82
2022-12-06T03:54:27.114Z,11.50
2022-12-06T03:58:28.639Z,7.82
2022-12-06T04:02:30.074Z,6.15
2022-12-06T04:06:31.608Z,8.10
2022-12-06T04:10:33.128Z,11.43
2022-12-06T04:14:39.235Z,11.35
2022-12-06T04:18:40.757Z,10.63
2022-12-06T04:23:00.762Z,11.98
2022-12-06T04:27:22.302Z,12.25
2022-12-06T04:31:43.026Z,12.45
2022-12-06T04:36:02.945Z,11.80
2022-12-06T04:40:05.234Z,10.02
2022-12-06T04:44:07.507Z,9.05
2022-12-06T04:48:11.103Z,5.97
2022-12-06T04:52:12.699Z,9.68
2022-12-06T04:56:14.180Z,8.73
2022-12-06T05:00:15.973Z,8.00
2022-12-06T05:04:17.806Z,6.75
2022-12-06T05:08:19.595Z,2.83
2022-12-06T05:12:21.094Z,8.02
2022-12-06T05:16:22.616Z,5.72
2022-12-06T05:20:24.314Z,8.18
2022-12-06T05:24:25.957Z,7.43
2022-12-06T05:28:28.420Z,7.75
2022-12-06T05:32:29.915Z,9.05
2022-12-06T05:36:32.522Z,8.30
2022-12-06T05:40:33.964Z,7.80
2022-12-06T05:44:35.613Z,9.52
2022-12-06T05:48:37.061Z,8.82
2022-12-06T05:52:38.526Z,8.65
2022-12-06T05:56:40.028Z,5.53
2022-12-06T06:00:41.496Z,7.93
2022-12-06T06:04:42.916Z,6.88
2022-12-06T06:08:44.374Z,7.03
2022-12-06T06:12:45.919Z,7.10
2022-12-06T06:16:47.452Z,7.75
2022-12-06T06:20:54.174Z,6.30
2022-12-06T06:24:55.674Z,5.25
2022-12-06T06:28:57.114Z,3.75
2022-12-06T06:32:58.569Z,6.60
2022-12-06T06:37:00.072Z,5.80
2022-12-06T06:41:03.433Z,6.90
2022-12-06T06:45:05.956Z,7.40
2022-12-06T06:49:07.629Z,6.80
2022-12-06T06:53:09.178Z,7.10
2022-12-06T06:57:17.200Z,8.18
2022-12-06T07:01:23.713Z,6.57
2022-12-06T07:05:25.815Z,7.60
2022-12-06T07:09:27.393Z,7.00
2022-12-06T07:13:29.797Z,7.22
2022-12-06T07:17:31.290Z,6.00
2022-12-06T07:21:32.725Z,7.10
2022-12-06T07:25:34.365Z,6.50
2022-12-06T07:29:35.797Z,6.60
2022-12-06T07:33:37.557Z,7.05
2022-12-06T07:37:45.383Z,7.10
2022-12-06T07:42:05.716Z,6.28
2022-12-06T07:50:18.733Z,6.15
2022-12-06T07:54:20.398Z,6.38
2022-12-06T07:58:21.853Z,5.85
2022-12-06T08:02:26.083Z,6.65
2022-12-06T08:06:27.896Z,7.03
2022-12-06T08:10:29.309Z,6.43
2022-12-06T08:14:30.790Z,6.57
2022-12-06T08:18:32.274Z,7.78
2022-12-06T08:22:34.190Z,3.45
2022-12-06T08:26:36.408Z,3.67
2022-12-06T08:30:41.426Z,6.55
2022-12-06T08:34:43.723Z,6.40
2022-12-06T08:38:45.737Z,6.07
2022-12-06T08:42:47.181Z,6.20
2022-12-06T08:46:48.939Z,5.68
2022-12-06T08:50:50.485Z,6.05
2022-12-06T08:54:51.900Z,6.85
2022-12-06T08:58:54.852Z,5.28
2022-12-06T09:02:56.390Z,6.35
2022-12-06T09:06:57.818Z,5.65
2022-12-06T09:10:59.271Z,5.03
2022-12-06T09:15:00.691Z,5.93
2022-12-06T09:19:02.323Z,5.85
2022-12-06T09:23:03.783Z,5.65
2022-12-06T09:27:05.320Z,5.30
2022-12-06T09:31:08.414Z,5.68
2022-12-06T09:35:15.131Z,5.45
2022-12-06T09:39:40.333Z,4.88
2022-12-06T09:43:56.696Z,5.25
2022-12-06T09:48:33.438Z,5.43
2022-12-06T09:53:16.358Z,5.03
2022-12-06T09:57:29.765Z,5.60
2022-12-06T10:01:59.206Z,4.05
2022-12-06T10:06:03.069Z,4.50
2022-12-06T10:10:13.497Z,4.68
2022-12-06T10:14:39.996Z,4.57
2022-12-06T10:19:03.211Z,3.00
2022-12-06T10:23:19.787Z,4.15
2022-12-06T10:27:36.841Z,3.22
2022-12-06T10:31:58.511Z,4.25
2022-12-06T10:36:09.907Z,4.47
2022-12-06T10:40:34.247Z,3.92
2022-12-06T10:44:44.450Z,4.65
2022-12-06T10:49:02.948Z,4.00
2022-12-06T10:53:12.656Z,4.63
2022-12-06T10:57:21.675Z,4.85
2022-12-06T11:01:28.705Z,5.10
2022-12-06T11:05:36.706Z,3.72
2022-12-06T11:09:49.438Z,2.45
2022-12-06T11:13:59.984Z,3.28
2022-12-06T11:18:18.121Z,3.47
2022-12-06T11:22:37.722Z,3.92
2022-12-06T11:26:52.348Z,3.75
2022-12-06T11:30:56.272Z,4.20
2022-12-06T11:35:00.592Z,3.95
2022-12-06T11:39:03.504Z,2.88
2022-12-06T11:43:07.998Z,4.85
2022-12-06T11:47:14.798Z,4.07
2022-12-06T11:51:19.911Z,4.45
2022-12-06T11:55:26.327Z,5.32
2022-12-06T11:59:30.599Z,5.45
2022-12-06T12:03:35.405Z,4.90
2022-12-06T12:07:40.848Z,6.43
2022-12-06T12:11:42.788Z,4.95
2022-12-06T12:15:51.154Z,5.63
2022-12-06T12:20:00.992Z,6.20
2022-12-06T12:24:03.346Z,4.88
2022-12-06T12:28:24.896Z,5.50
2022-12-06T12:32:26.377Z,5.38
2022-12-06T12:36:29.184Z,3.35
2022-12-06T12:40:33.665Z,5.32
2022-12-06T12:44:39.562Z,2.88
2022-12-06T12:48:45.154Z,4.35
2022-12-06T12:52:47.377Z,3.05
2022-12-06T12:56:50.183Z,4.55
2022-12-06T13:00:53.067Z,4.72
2022-12-06T13:05:40.595Z,4.95
2022-12-06T13:10:01.300Z,4.85
2022-12-06T13:14:03.621Z,4.97
2022-12-06T13:18:19.795Z,4.75
2022-12-06T13:22:29.642Z,5.63
2022-12-06T13:26:39.662Z,3.83
2022-12-06T13:30:42.030Z,5.28
2022-12-06T13:34:50.935Z,4.30
2022-12-06T13:38:52.645Z,1.60
2022-12-06T13:42:54.154Z,5.57
2022-12-06T13:47:27.403Z,5.80
2022-12-06T13:51:32.504Z,5.30
2022-12-06T13:55:36.765Z,5.57
2022-12-06T13:59:39.217Z,4.97
2022-12-06T14:03:41.282Z,5.38
2022-12-06T14:07:42.817Z,4.82
2022-12-06T14:11:45.066Z,6.00
2022-12-06T14:15:49.296Z,5.60
2022-12-06T14:19:51.755Z,5.22
2022-12-06T14:23:53.379Z,3.85
2022-12-06T14:28:04.113Z,3.10
2022-12-06T14:32:05.839Z,3.63
2022-12-06T14:36:17.472Z,1.98
2022-12-06T14:40:55.309Z,4.55
2022-12-06T14:45:01.905Z,3.58
2022-12-06T14:49:22.847Z,4.90
2022-12-06T14:57:49.538Z,4.85
2022-12-06T15:01:54.309Z,5.07
2022-12-06T15:06:18.320Z,4.07
2022-12-06T15:10:30.262Z,4.15
2022-12-06T15:14:35.081Z,5.03
2022-12-06T15:18:54.600Z,4.78
2022-12-06T15:22:56.123Z,5.40
2022-12-06T15:26:57.740Z,5.38
2022-12-06T15:30:59.371Z,4.30
2022-12-06T15:35:00.856Z,4.50
2022-12-06T15:39:02.447Z,5.13
2022-12-06T15:43:03.964Z,6.43
2022-12-06T15:47:05.493Z,5.35
2022-12-06T15:51:10.775Z,3.88
2022-12-06T15:55:18.038Z,5.60
2022-12-06T15:59:20.150Z,5.57
2022-12-06T16:03:21.714Z,4.65
2022-12-06T16:07:23.274Z,3.20
2022-12-06T16:11:26.488Z,5.32
2022-12-06T16:15:28.086Z,5.15
2022-12-06T16:19:49.549Z,5.43
2022-12-06T16:24:13.097Z,3.33
2022-12-06T16:28:15.932Z,5.68
2022-12-06T16:32:17.455Z,5.30
2022-12-06T16:36:22.011Z,5.72
2022-12-06T16:40:26.550Z,4.50
2022-12-06T16:44:28.498Z,4.50
2022-12-06T16:48:30.010Z,4.60
2022-12-06T16:52:31.531Z,5.13
2022-12-06T16:56:35.297Z,5.20
2022-12-06T17:00:39.013Z,5.13
2022-12-06T17:04:42.766Z,3.05
2022-12-06T17:08:44.397Z,6.25
2022-12-06T17:12:48.216Z,5.25
2022-12-06T17:16:49.774Z,3.90
2022-12-06T17:20:51.277Z,4.35
2022-12-06T17:24:52.881Z,4.30
2022-12-06T17:28:55.085Z,3.58
2022-12-06T17:32:56.612Z,4.32
2022-12-06T17:36:58.944Z,4.32
2022-12-06T17:41:00.355Z,4.68
2022-12-06T17:45:02.766Z,4.57
2022-12-06T17:49:05.397Z,4.55
2022-12-06T17:53:06.872Z,4.32
2022-12-06T17:57:15.343Z,4.72
2022-12-06T18:01:16.984Z,4.82
2022-12-06T18:05:18.568Z,4.90
2022-12-06T18:09:20.786Z,4.25
2022-12-06T18:13:22.281Z,5.60
2022-12-06T18:17:23.840Z,6.07
2022-12-06T18:21:25.805Z,6.95
2022-12-06T18:25:27.315Z,6.65
2022-12-06T18:29:28.882Z,6.90
2022-12-06T18:33:34.198Z,6.90
2022-12-06T18:37:35.671Z,6.43
2022-12-06T18:41:37.192Z,8.88
2022-12-06T18:45:39.037Z,8.85
2022-12-06T18:49:41.197Z,9.15
2022-12-06T18:53:43.551Z,8.93
2022-12-06T18:57:45.004Z,7.55
2022-12-06T19:01:46.763Z,8.27
2022-12-06T19:06:02.540Z,8.38
2022-12-06T19:10:05.556Z,9.18
2022-12-06T19:14:08.206Z,8.50
2022-12-06T19:18:13.406Z,9.82
2022-12-06T19:22:14.897Z,9.10
2022-12-06T19:26:16.391Z,8.23
2022-12-06T19:30:18.749Z,9.82
2022-12-06T19:34:22.876Z,8.25
2022-12-06T19:38:25.132Z,9.10
2022-12-06T19:42:44.981Z,8.68
2022-12-06T19:46:48.133Z,9.93
2022-12-06T19:50:49.581Z,9.10
2022-12-06T19:54:51.258Z,9.60
2022-12-06T19:58:57.295Z,8.48
2022-12-06T20:02:58.842Z,10.85
2022-12-06T20:07:04.716Z,9.10
2022-12-06T20:11:28.658Z,10.95
2022-12-06T20:15:34.682Z,10.95
2022-12-06T20:19:49.043Z,11.15
2022-12-06T20:23:53.560Z,8.85
2022-12-06T20:27:59.747Z,9.25
2022-12-06T20:32:02.112Z,9.65
2022-12-06T20:36:19.273Z,9.50
2022-12-06T20:40:20.690Z,10.18
2022-12-06T20:44:25.838Z,6.13
2022-12-06T20:48:31.039Z,10.05
2022-12-06T20:52:32.511Z,8.95
2022-12-06T20:56:39.429Z,8.20
2022-12-06T21:00:41.485Z,7.95
2022-12-06T21:04:43.462Z,8.95
2022-12-06T21:08:45.502Z,8.50
2022-12-06T21:12:49.710Z,6.65
2022-12-06T21:16:55.513Z,6.07
2022-12-06T21:20:59.572Z,6.10
2022-12-06T21:25:07.222Z,4.13
2022-12-06T21:29:14.872Z,3.85
2022-12-06T21:33:16.483Z,3.85
2022-12-06T21:37:17.944Z,4.63
2022-12-06T21:41:20.214Z,3.40
2022-12-06T21:45:21.698Z,3.80
2022-12-06T21:49:23.228Z,3.45
2022-12-06T21:53:24.681Z,2.70
2022-12-06T21:57:26.189Z,3.30
2022-12-06T22:01:29.822Z,2.35
2022-12-06T22:05:31.337Z,4.43
2022-12-06T22:09:32.925Z,3.78
2022-12-06T22:13:35.333Z,4.00
2022-12-06T22:17:36.816Z,4.57
2022-12-06T22:21:38.279Z,5.45
2022-12-06T22:25:39.756Z,4.75
2022-12-06T22:29:41.271Z,4.15
2022-12-06T22:33:43.500Z,5.47
2022-12-06T22:37:45.010Z,5.78
2022-12-06T22:41:46.573Z,6.13
2022-12-06T22:45:48.014Z,4.32
2022-12-06T22:49:49.434Z,5.97
2022-12-06T22:53:56.056Z,5.55
2022-12-06T22:57:57.530Z,8.35
2022-12-06T23:01:59.064Z,2.35
2022-12-06T23:06:00.895Z,3.13
2022-12-06T23:10:02.599Z,5.28
2022-12-06T23:14:04.741Z,7.05
2022-12-06T23:18:06.212Z,7.30
2022-12-06T23:22:07.681Z,7.85
2022-12-06T23:26:12.192Z,7.85
2022-12-06T23:30:13.776Z,8.65
2022-12-06T23:34:22.365Z,9.25
2022-12-06T23:38:23.884Z,5.50
2022-12-06T23:42:25.299Z,5.85
2022-12-06T23:46:32.161Z,4.28
2022-12-06T23:50:33.641Z,7.65
2022-12-06T23:54:35.074Z,9.05
2022-12-06T23:58:37.437Z,2.97
